sensor_id;sensor_type;location;lat;lon;timestamp;P1;durP1;ratioP1;P2;durP2;ratioP2
50671;SDS011;46021;55.882;37.654;2022-08-21T00:01:18;26.35;;;14.05;;
50671;SDS011;46021;55.882;37.654;2022-08-21T00:03:47;24.80;;;13.05;;
50671;SDS011;46021;55.882;37.654;2022-08-21T00:06:14;26.15;;;14.05;;
50671;SDS011;46021;55.882;37.654;2022-08-21T00:08:41;27.38;;;14.65;;
50671;SDS011;46021;55.882;37.654;2022-08-21T00:11:08;24.17;;;13.95;;
50671;SDS011;46021;55.882;37.654;2022-08-21T00:13:35;26.83;;;14.45;;
50671;SDS011;46021;55.882;37.654;2022-08-21T00:16:02;25.27;;;14.57;;
50671;SDS011;46021;55.882;37.654;2022-08-21T00:18:29;23.13;;;14.23;;
50671;SDS011;46021;55.882;37.654;2022-08-21T00:20:55;23.73;;;14.02;;
50671;SDS011;46021;55.882;37.654;2022-08-21T00:23:23;24.90;;;14.82;;
50671;SDS011;46021;55.882;37.654;2022-08-21T00:25:49;25.75;;;14.38;;
50671;SDS011;46021;55.882;37.654;2022-08-21T00:28:16;24.98;;;14.77;;
50671;SDS011;46021;55.882;37.654;2022-08-21T00:30:44;28.70;;;15.07;;
50671;SDS011;46021;55.882;37.654;2022-08-21T00:33:11;31.33;;;15.57;;
50671;SDS011;46021;55.882;37.654;2022-08-21T00:35:39;22.95;;;15.23;;
50671;SDS011;46021;55.882;37.654;2022-08-21T00:38:08;31.98;;;15.48;;
50671;SDS011;46021;55.882;37.654;2022-08-21T00:40:37;24.20;;;14.98;;
50671;SDS011;46021;55.882;37.654;2022-08-21T00:43:08;27.90;;;15.65;;
50671;SDS011;46021;55.882;37.654;2022-08-21T00:45:36;32.45;;;16.90;;
50671;SDS011;46021;55.882;37.654;2022-08-21T00:48:03;26.43;;;15.17;;
50671;SDS011;46021;55.882;37.654;2022-08-21T00:50:31;28.90;;;15.13;;
50671;SDS011;46021;55.882;37.654;2022-08-21T00:53:00;31.17;;;14.77;;
50671;SDS011;46021;55.882;37.654;2022-08-21T00:55:29;26.73;;;15.50;;
50671;SDS011;46021;55.882;37.654;2022-08-21T00:57:58;29.40;;;15.70;;
50671;SDS011;46021;55.882;37.654;2022-08-21T01:00:28;25.77;;;14.52;;
50671;SDS011;46021;55.882;37.654;2022-08-21T01:02:59;25.60;;;14.68;;
50671;SDS011;46021;55.882;37.654;2022-08-21T01:05:27;25.73;;;14.07;;
50671;SDS011;46021;55.882;37.654;2022-08-21T01:07:53;30.73;;;15.55;;
50671;SDS011;46021;55.882;37.654;2022-08-21T01:10:22;27.20;;;15.55;;
50671;SDS011;46021;55.882;37.654;2022-08-21T01:12:49;28.60;;;14.70;;
50671;SDS011;46021;55.882;37.654;2022-08-21T01:15:18;25.02;;;15.13;;
50671;SDS011;46021;55.882;37.654;2022-08-21T01:17:46;25.63;;;14.82;;
50671;SDS011;46021;55.882;37.654;2022-08-21T01:22:41;24.38;;;14.88;;
50671;SDS011;46021;55.882;37.654;2022-08-21T01:25:09;27.42;;;15.75;;
50671;SDS011;46021;55.882;37.654;2022-08-21T01:27:38;22.85;;;13.77;;
50671;SDS011;46021;55.882;37.654;2022-08-21T01:30:07;27.25;;;16.00;;
50671;SDS011;46021;55.882;37.654;2022-08-21T01:32:38;27.42;;;15.30;;
50671;SDS011;46021;55.882;37.654;2022-08-21T01:35:05;29.75;;;16.92;;
50671;SDS011;46021;55.882;37.654;2022-08-21T01:40:00;26.08;;;15.10;;
50671;SDS011;46021;55.882;37.654;2022-08-21T01:42:28;31.40;;;16.60;;
50671;SDS011;46021;55.882;37.654;2022-08-21T01:44:55;27.05;;;16.08;;
50671;SDS011;46021;55.882;37.654;2022-08-21T01:47:22;29.05;;;15.15;;
50671;SDS011;46021;55.882;37.654;2022-08-21T01:49:49;26.67;;;15.60;;
50671;SDS011;46021;55.882;37.654;2022-08-21T01:52:16;24.70;;;15.00;;
50671;SDS011;46021;55.882;37.654;2022-08-21T01:54:42;27.65;;;15.23;;
50671;SDS011;46021;55.882;37.654;2022-08-21T01:57:10;28.27;;;16.50;;
50671;SDS011;46021;55.882;37.654;2022-08-21T01:59:38;35.30;;;16.70;;
50671;SDS011;46021;55.882;37.654;2022-08-21T02:04:32;33.42;;;17.02;;
50671;SDS011;46021;55.882;37.654;2022-08-21T02:06:59;30.20;;;17.67;;
50671;SDS011;46021;55.882;37.654;2022-08-21T02:09:27;33.05;;;17.83;;
50671;SDS011;46021;55.882;37.654;2022-08-21T02:11:53;33.00;;;18.55;;
50671;SDS011;46021;55.882;37.654;2022-08-21T02:14:21;30.38;;;17.88;;
50671;SDS011;46021;55.882;37.654;2022-08-21T02:16:48;26.80;;;15.40;;
50671;SDS011;46021;55.882;37.654;2022-08-21T02:19:15;33.40;;;20.38;;
50671;SDS011;46021;55.882;37.654;2022-08-21T02:21:42;26.27;;;16.02;;
50671;SDS011;46021;55.882;37.654;2022-08-21T02:24:09;31.98;;;18.13;;
50671;SDS011;46021;55.882;37.654;2022-08-21T02:26:36;32.35;;;19.33;;
50671;SDS011;46021;55.882;37.654;2022-08-21T02:29:03;40.20;;;19.77;;
50671;SDS011;46021;55.882;37.654;2022-08-21T02:33:58;33.85;;;18.80;;
50671;SDS011;46021;55.882;37.654;2022-08-21T02:38:54;41.03;;;21.85;;
50671;SDS011;46021;55.882;37.654;2022-08-21T02:41:22;35.73;;;21.57;;
50671;SDS011;46021;55.882;37.654;2022-08-21T02:43:49;39.78;;;20.27;;
50671;SDS011;46021;55.882;37.654;2022-08-21T02:46:17;38.17;;;22.47;;
50671;SDS011;46021;55.882;37.654;2022-08-21T02:48:46;35.95;;;20.38;;
50671;SDS011;46021;55.882;37.654;2022-08-21T02:51:15;35.72;;;21.50;;
50671;SDS011;46021;55.882;37.654;2022-08-21T02:53:44;37.25;;;23.10;;
50671;SDS011;46021;55.882;37.654;2022-08-21T02:56:12;38.17;;;23.83;;
50671;SDS011;46021;55.882;37.654;2022-08-21T02:58:42;39.15;;;21.83;;
50671;SDS011;46021;55.882;37.654;2022-08-21T03:01:11;43.88;;;25.73;;
50671;SDS011;46021;55.882;37.654;2022-08-21T03:03:38;48.45;;;24.27;;
50671;SDS011;46021;55.882;37.654;2022-08-21T03:06:08;45.95;;;26.15;;
50671;SDS011;46021;55.882;37.654;2022-08-21T03:08:36;47.13;;;26.50;;
50671;SDS011;46021;55.882;37.654;2022-08-21T03:11:03;39.85;;;24.02;;
50671;SDS011;46021;55.882;37.654;2022-08-21T03:13:31;44.22;;;25.98;;
50671;SDS011;46021;55.882;37.654;2022-08-21T03:15:57;46.58;;;26.13;;
50671;SDS011;46021;55.882;37.654;2022-08-21T03:18:24;50.80;;;28.70;;
50671;SDS011;46021;55.882;37.654;2022-08-21T03:20:51;48.15;;;25.95;;
50671;SDS011;46021;55.882;37.654;2022-08-21T03:23:18;46.53;;;26.23;;
50671;SDS011;46021;55.882;37.654;2022-08-21T03:25:45;38.63;;;25.20;;
50671;SDS011;46021;55.882;37.654;2022-08-21T03:28:14;44.65;;;27.23;;
50671;SDS011;46021;55.882;37.654;2022-08-21T03:30:43;51.67;;;29.77;;
50671;SDS011;46021;55.882;37.654;2022-08-21T03:33:12;45.95;;;29.00;;
50671;SDS011;46021;55.882;37.654;2022-08-21T03:35:40;43.55;;;27.05;;
50671;SDS011;46021;55.882;37.654;2022-08-21T03:38:08;47.90;;;29.70;;
50671;SDS011;46021;55.882;37.654;2022-08-21T03:40:37;49.00;;;29.30;;
50671;SDS011;46021;55.882;37.654;2022-08-21T03:43:03;47.97;;;30.13;;
50671;SDS011;46021;55.882;37.654;2022-08-21T03:45:32;54.00;;;30.83;;
50671;SDS011;46021;55.882;37.654;2022-08-21T03:47:59;50.65;;;32.28;;
50671;SDS011;46021;55.882;37.654;2022-08-21T03:50:31;49.10;;;32.03;;
50671;SDS011;46021;55.882;37.654;2022-08-21T03:52:59;51.55;;;31.10;;
50671;SDS011;46021;55.882;37.654;2022-08-21T03:55:26;53.93;;;35.07;;
50671;SDS011;46021;55.882;37.654;2022-08-21T03:57:54;55.17;;;34.70;;
50671;SDS011;46021;55.882;37.654;2022-08-21T04:02:47;60.97;;;36.35;;
50671;SDS011;46021;55.882;37.654;2022-08-21T04:05:15;58.20;;;37.80;;
50671;SDS011;46021;55.882;37.654;2022-08-21T04:07:52;57.45;;;36.25;;
50671;SDS011;46021;55.882;37.654;2022-08-21T04:10:20;56.08;;;36.63;;
50671;SDS011;46021;55.882;37.654;2022-08-21T04:12:47;56.40;;;37.47;;
50671;SDS011;46021;55.882;37.654;2022-08-21T04:15:14;60.13;;;36.45;;
50671;SDS011;46021;55.882;37.654;2022-08-21T04:17:40;62.28;;;37.28;;
50671;SDS011;46021;55.882;37.654;2022-08-21T04:20:08;54.57;;;37.13;;
50671;SDS011;46021;55.882;37.654;2022-08-21T04:22:35;56.45;;;36.53;;
50671;SDS011;46021;55.882;37.654;2022-08-21T04:25:01;64.00;;;37.75;;
50671;SDS011;46021;55.882;37.654;2022-08-21T04:27:29;58.28;;;35.65;;
50671;SDS011;46021;55.882;37.654;2022-08-21T04:29:55;64.93;;;39.72;;
50671;SDS011;46021;55.882;37.654;2022-08-21T04:32:23;54.75;;;37.47;;
50671;SDS011;46021;55.882;37.654;2022-08-21T04:34:49;56.58;;;36.80;;
50671;SDS011;46021;55.882;37.654;2022-08-21T04:37:16;54.30;;;37.13;;
50671;SDS011;46021;55.882;37.654;2022-08-21T04:39:43;54.40;;;36.42;;
50671;SDS011;46021;55.882;37.654;2022-08-21T04:42:09;59.50;;;35.97;;
50671;SDS011;46021;55.882;37.654;2022-08-21T04:44:36;64.70;;;38.80;;
50671;SDS011;46021;55.882;37.654;2022-08-21T04:47:03;52.97;;;35.80;;
50671;SDS011;46021;55.882;37.654;2022-08-21T04:49:31;52.97;;;36.13;;
50671;SDS011;46021;55.882;37.654;2022-08-21T04:51:57;56.92;;;35.83;;
50671;SDS011;46021;55.882;37.654;2022-08-21T04:54:24;58.53;;;37.35;;
50671;SDS011;46021;55.882;37.654;2022-08-21T04:56:52;63.38;;;39.05;;
50671;SDS011;46021;55.882;37.654;2022-08-21T04:59:22;55.78;;;36.33;;
50671;SDS011;46021;55.882;37.654;2022-08-21T05:01:52;59.10;;;35.33;;
50671;SDS011;46021;55.882;37.654;2022-08-21T05:04:22;57.78;;;35.88;;
50671;SDS011;46021;55.882;37.654;2022-08-21T05:06:53;56.17;;;35.05;;
50671;SDS011;46021;55.882;37.654;2022-08-21T05:09:23;56.22;;;34.97;;
50671;SDS011;46021;55.882;37.654;2022-08-21T05:11:50;56.35;;;35.63;;
50671;SDS011;46021;55.882;37.654;2022-08-21T05:14:18;56.92;;;35.85;;
50671;SDS011;46021;55.882;37.654;2022-08-21T05:16:45;53.55;;;33.78;;
50671;SDS011;46021;55.882;37.654;2022-08-21T05:19:11;58.53;;;33.50;;
50671;SDS011;46021;55.882;37.654;2022-08-21T05:21:39;61.78;;;38.97;;
50671;SDS011;46021;55.882;37.654;2022-08-21T05:24:07;54.90;;;33.88;;
50671;SDS011;46021;55.882;37.654;2022-08-21T05:26:34;52.97;;;34.38;;
50671;SDS011;46021;55.882;37.654;2022-08-21T05:29:01;55.85;;;34.38;;
50671;SDS011;46021;55.882;37.654;2022-08-21T05:31:28;66.10;;;36.35;;
50671;SDS011;46021;55.882;37.654;2022-08-21T05:33:55;51.47;;;34.10;;
50671;SDS011;46021;55.882;37.654;2022-08-21T05:36:21;53.17;;;33.50;;
50671;SDS011;46021;55.882;37.654;2022-08-21T05:38:48;59.28;;;35.28;;
50671;SDS011;46021;55.882;37.654;2022-08-21T05:41:16;48.97;;;32.25;;
50671;SDS011;46021;55.882;37.654;2022-08-21T05:43:42;52.65;;;32.42;;
50671;SDS011;46021;55.882;37.654;2022-08-21T05:46:09;54.38;;;32.55;;
50671;SDS011;46021;55.882;37.654;2022-08-21T05:48:36;48.50;;;31.52;;
50671;SDS011;46021;55.882;37.654;2022-08-21T05:51:04;48.17;;;32.33;;
50671;SDS011;46021;55.882;37.654;2022-08-21T05:53:32;51.72;;;31.27;;
50671;SDS011;46021;55.882;37.654;2022-08-21T05:55:59;52.63;;;30.83;;
50671;SDS011;46021;55.882;37.654;2022-08-21T06:00:52;46.13;;;30.42;;
50671;SDS011;46021;55.882;37.654;2022-08-21T06:03:20;45.95;;;31.10;;
50671;SDS011;46021;55.882;37.654;2022-08-21T06:05:50;44.05;;;30.23;;
50671;SDS011;46021;55.882;37.654;2022-08-21T06:10:43;52.58;;;31.35;;
50671;SDS011;46021;55.882;37.654;2022-08-21T06:13:11;49.38;;;32.35;;
50671;SDS011;46021;55.882;37.654;2022-08-21T06:15:38;46.50;;;31.25;;
50671;SDS011;46021;55.882;37.654;2022-08-21T06:20:31;49.00;;;31.35;;
50671;SDS011;46021;55.882;37.654;2022-08-21T06:22:57;49.22;;;30.75;;
50671;SDS011;46021;55.882;37.654;2022-08-21T06:25:24;52.25;;;32.50;;
50671;SDS011;46021;55.882;37.654;2022-08-21T06:27:51;53.58;;;31.35;;
50671;SDS011;46021;55.882;37.654;2022-08-21T06:30:18;66.77;;;42.83;;
50671;SDS011;46021;55.882;37.654;2022-08-21T06:32:45;52.45;;;31.42;;
50671;SDS011;46021;55.882;37.654;2022-08-21T06:35:12;58.65;;;32.65;;
50671;SDS011;46021;55.882;37.654;2022-08-21T06:37:38;51.85;;;31.83;;
50671;SDS011;46021;55.882;37.654;2022-08-21T06:40:05;51.58;;;31.73;;
50671;SDS011;46021;55.882;37.654;2022-08-21T06:42:33;53.67;;;31.50;;
50671;SDS011;46021;55.882;37.654;2022-08-21T06:44:59;46.90;;;29.37;;
50671;SDS011;46021;55.882;37.654;2022-08-21T06:47:26;48.60;;;30.13;;
50671;SDS011;46021;55.882;37.654;2022-08-21T06:49:53;50.45;;;29.00;;
50671;SDS011;46021;55.882;37.654;2022-08-21T06:52:20;49.15;;;29.48;;
50671;SDS011;46021;55.882;37.654;2022-08-21T06:54:46;57.83;;;31.30;;
50671;SDS011;46021;55.882;37.654;2022-08-21T06:57:13;46.53;;;28.10;;
50671;SDS011;46021;55.882;37.654;2022-08-21T06:59:40;53.83;;;27.73;;
50671;SDS011;46021;55.882;37.654;2022-08-21T07:02:06;43.85;;;27.83;;
50671;SDS011;46021;55.882;37.654;2022-08-21T07:07:01;44.78;;;27.88;;
50671;SDS011;46021;55.882;37.654;2022-08-21T07:09:27;47.75;;;27.40;;
50671;SDS011;46021;55.882;37.654;2022-08-21T07:11:56;47.40;;;27.13;;
50671;SDS011;46021;55.882;37.654;2022-08-21T07:14:23;39.10;;;25.23;;
50671;SDS011;46021;55.882;37.654;2022-08-21T07:16:49;42.60;;;26.60;;
50671;SDS011;46021;55.882;37.654;2022-08-21T07:19:17;45.25;;;25.58;;
50671;SDS011;46021;55.882;37.654;2022-08-21T07:21:44;38.93;;;25.43;;
50671;SDS011;46021;55.882;37.654;2022-08-21T07:24:11;42.20;;;27.37;;
50671;SDS011;46021;55.882;37.654;2022-08-21T07:26:38;48.70;;;28.10;;
50671;SDS011;46021;55.882;37.654;2022-08-21T07:29:05;37.40;;;24.98;;
50671;SDS011;46021;55.882;37.654;2022-08-21T07:31:32;39.87;;;25.90;;
50671;SDS011;46021;55.882;37.654;2022-08-21T07:33:58;38.83;;;24.42;;
50671;SDS011;46021;55.882;37.654;2022-08-21T07:36:25;46.20;;;27.63;;
50671;SDS011;46021;55.882;37.654;2022-08-21T07:38:51;42.88;;;26.08;;
50671;SDS011;46021;55.882;37.654;2022-08-21T07:41:20;46.53;;;26.92;;
50671;SDS011;46021;55.882;37.654;2022-08-21T07:43:48;35.42;;;23.65;;
50671;SDS011;46021;55.882;37.654;2022-08-21T07:46:15;45.85;;;28.90;;
50671;SDS011;46021;55.882;37.654;2022-08-21T07:48:42;40.00;;;24.88;;
50671;SDS011;46021;55.882;37.654;2022-08-21T07:51:10;42.30;;;25.60;;
50671;SDS011;46021;55.882;37.654;2022-08-21T07:53:39;39.58;;;24.52;;
50671;SDS011;46021;55.882;37.654;2022-08-21T07:58:34;37.75;;;24.25;;
50671;SDS011;46021;55.882;37.654;2022-08-21T08:03:30;38.42;;;24.40;;
50671;SDS011;46021;55.882;37.654;2022-08-21T08:05:56;36.33;;;23.10;;
50671;SDS011;46021;55.882;37.654;2022-08-21T08:08:23;36.90;;;21.90;;
50671;SDS011;46021;55.882;37.654;2022-08-21T08:10:50;32.83;;;21.20;;
50671;SDS011;46021;55.882;37.654;2022-08-21T08:13:17;35.17;;;20.40;;
50671;SDS011;46021;55.882;37.654;2022-08-21T08:15:45;38.92;;;20.38;;
50671;SDS011;46021;55.882;37.654;2022-08-21T08:20:39;29.00;;;19.05;;
50671;SDS011;46021;55.882;37.654;2022-08-21T08:25:32;32.15;;;19.25;;
50671;SDS011;46021;55.882;37.654;2022-08-21T08:27:59;30.23;;;19.42;;
50671;SDS011;46021;55.882;37.654;2022-08-21T08:30:25;33.10;;;19.50;;
50671;SDS011;46021;55.882;37.654;2022-08-21T08:32:52;31.63;;;20.10;;
50671;SDS011;46021;55.882;37.654;2022-08-21T08:35:19;33.83;;;19.70;;
50671;SDS011;46021;55.882;37.654;2022-08-21T08:37:46;31.95;;;20.55;;
50671;SDS011;46021;55.882;37.654;2022-08-21T08:40:13;39.88;;;20.05;;
50671;SDS011;46021;55.882;37.654;2022-08-21T08:42:44;36.33;;;21.10;;
50671;SDS011;46021;55.882;37.654;2022-08-21T08:45:13;41.72;;;21.60;;
50671;SDS011;46021;55.882;37.654;2022-08-21T08:47:44;32.17;;;21.33;;
50671;SDS011;46021;55.882;37.654;2022-08-21T08:50:15;28.13;;;18.60;;
50671;SDS011;46021;55.882;37.654;2022-08-21T08:52:48;31.73;;;17.52;;
50671;SDS011;46021;55.882;37.654;2022-08-21T08:55:18;25.00;;;16.80;;
50671;SDS011;46021;55.882;37.654;2022-08-21T08:57:49;30.48;;;17.45;;
50671;SDS011;46021;55.882;37.654;2022-08-21T09:00:18;33.05;;;19.60;;
50671;SDS011;46021;55.882;37.654;2022-08-21T09:02:47;27.15;;;17.27;;
50671;SDS011;46021;55.882;37.654;2022-08-21T09:05:22;27.20;;;15.60;;
50671;SDS011;46021;55.882;37.654;2022-08-21T09:07:53;30.63;;;16.45;;
50671;SDS011;46021;55.882;37.654;2022-08-21T09:10:44;22.00;;;14.63;;
50671;SDS011;46021;55.882;37.654;2022-08-21T09:13:25;28.52;;;15.55;;
50671;SDS011;46021;55.882;37.654;2022-08-21T09:16:02;27.63;;;15.00;;
50671;SDS011;46021;55.882;37.654;2022-08-21T09:18:38;24.25;;;15.60;;
50671;SDS011;46021;55.882;37.654;2022-08-21T09:21:14;22.73;;;16.02;;
50671;SDS011;46021;55.882;37.654;2022-08-21T09:23:47;29.63;;;17.38;;
50671;SDS011;46021;55.882;37.654;2022-08-21T09:26:22;29.25;;;14.57;;
50671;SDS011;46021;55.882;37.654;2022-08-21T09:28:51;20.95;;;13.85;;
50671;SDS011;46021;55.882;37.654;2022-08-21T09:31:25;26.27;;;14.35;;
50671;SDS011;46021;55.882;37.654;2022-08-21T09:33:59;28.13;;;14.77;;
50671;SDS011;46021;55.882;37.654;2022-08-21T09:36:31;23.25;;;15.27;;
50671;SDS011;46021;55.882;37.654;2022-08-21T09:39:03;29.50;;;15.95;;
50671;SDS011;46021;55.882;37.654;2022-08-21T09:41:32;23.33;;;15.68;;
50671;SDS011;46021;55.882;37.654;2022-08-21T09:44:01;26.52;;;14.98;;
50671;SDS011;46021;55.882;37.654;2022-08-21T09:46:28;27.88;;;16.75;;
50671;SDS011;46021;55.882;37.654;2022-08-21T09:48:56;30.88;;;16.45;;
50671;SDS011;46021;55.882;37.654;2022-08-21T09:51:24;29.52;;;16.67;;
50671;SDS011;46021;55.882;37.654;2022-08-21T09:53:54;28.05;;;16.85;;
50671;SDS011;46021;55.882;37.654;2022-08-21T09:56:27;35.28;;;17.50;;
50671;SDS011;46021;55.882;37.654;2022-08-21T09:59:17;26.05;;;17.45;;
50671;SDS011;46021;55.882;37.654;2022-08-21T10:04:22;28.35;;;19.58;;
50671;SDS011;46021;55.882;37.654;2022-08-21T10:06:49;27.90;;;17.75;;
50671;SDS011;46021;55.882;37.654;2022-08-21T10:09:17;34.03;;;19.42;;
50671;SDS011;46021;55.882;37.654;2022-08-21T10:11:47;32.83;;;20.58;;
50671;SDS011;46021;55.882;37.654;2022-08-21T10:17:00;23.75;;;16.33;;
50671;SDS011;46021;55.882;37.654;2022-08-21T10:19:35;26.98;;;16.88;;
50671;SDS011;46021;55.882;37.654;2022-08-21T10:22:11;34.30;;;16.45;;
50671;SDS011;46021;55.882;37.654;2022-08-21T10:24:50;21.55;;;13.85;;
50671;SDS011;46021;55.882;37.654;2022-08-21T10:27:26;23.92;;;13.90;;
50671;SDS011;46021;55.882;37.654;2022-08-21T10:30:03;24.58;;;13.80;;
50671;SDS011;46021;55.882;37.654;2022-08-21T10:32:40;22.42;;;13.88;;
50671;SDS011;46021;55.882;37.654;2022-08-21T10:35:27;23.33;;;14.60;;
50671;SDS011;46021;55.882;37.654;2022-08-21T10:38:01;27.13;;;14.13;;
50671;SDS011;46021;55.882;37.654;2022-08-21T10:40:40;24.80;;;13.43;;
50671;SDS011;46021;55.882;37.654;2022-08-21T10:43:15;24.73;;;13.73;;
50671;SDS011;46021;55.882;37.654;2022-08-21T10:45:50;27.20;;;15.90;;
50671;SDS011;46021;55.882;37.654;2022-08-21T10:48:25;23.53;;;15.07;;
50671;SDS011;46021;55.882;37.654;2022-08-21T10:50:55;24.98;;;15.30;;
50671;SDS011;46021;55.882;37.654;2022-08-21T10:53:36;21.73;;;13.82;;
50671;SDS011;46021;55.882;37.654;2022-08-21T10:56:16;21.90;;;13.30;;
50671;SDS011;46021;55.882;37.654;2022-08-21T10:58:46;18.52;;;12.48;;
50671;SDS011;46021;55.882;37.654;2022-08-21T11:01:25;29.35;;;12.82;;
50671;SDS011;46021;55.882;37.654;2022-08-21T11:04:02;20.27;;;11.90;;
50671;SDS011;46021;55.882;37.654;2022-08-21T11:06:37;30.05;;;12.13;;
50671;SDS011;46021;55.882;37.654;2022-08-21T11:09:09;20.73;;;11.55;;
50671;SDS011;46021;55.882;37.654;2022-08-21T11:11:40;25.30;;;11.73;;
50671;SDS011;46021;55.882;37.654;2022-08-21T11:14:18;29.33;;;11.57;;
50671;SDS011;46021;55.882;37.654;2022-08-21T11:16:57;18.13;;;10.77;;
50671;SDS011;46021;55.882;37.654;2022-08-21T11:19:33;23.38;;;11.05;;
50671;SDS011;46021;55.882;37.654;2022-08-21T11:22:06;27.85;;;12.05;;
50671;SDS011;46021;55.882;37.654;2022-08-21T11:24:40;18.73;;;11.40;;
50671;SDS011;46021;55.882;37.654;2022-08-21T11:27:13;18.17;;;10.73;;
50671;SDS011;46021;55.882;37.654;2022-08-21T11:29:47;22.98;;;12.38;;
50671;SDS011;46021;55.882;37.654;2022-08-21T11:32:27;26.30;;;11.45;;
50671;SDS011;46021;55.882;37.654;2022-08-21T11:35:30;20.65;;;11.52;;
50671;SDS011;46021;55.882;37.654;2022-08-21T11:38:06;18.67;;;10.82;;
50671;SDS011;46021;55.882;37.654;2022-08-21T11:40:50;25.30;;;13.57;;
50671;SDS011;46021;55.882;37.654;2022-08-21T11:43:31;24.00;;;12.98;;
50671;SDS011;46021;55.882;37.654;2022-08-21T11:46:09;25.83;;;13.00;;
50671;SDS011;46021;55.882;37.654;2022-08-21T11:48:44;21.67;;;12.40;;
50671;SDS011;46021;55.882;37.654;2022-08-21T11:51:21;22.15;;;11.98;;
50671;SDS011;46021;55.882;37.654;2022-08-21T11:53:52;24.50;;;12.23;;
50671;SDS011;46021;55.882;37.654;2022-08-21T11:56:28;20.70;;;11.30;;
50671;SDS011;46021;55.882;37.654;2022-08-21T11:59:01;25.50;;;11.32;;
50671;SDS011;46021;55.882;37.654;2022-08-21T12:01:34;29.88;;;11.55;;
50671;SDS011;46021;55.882;37.654;2022-08-21T12:04:06;23.67;;;12.38;;
50671;SDS011;46021;55.882;37.654;2022-08-21T12:06:42;20.10;;;11.93;;
50671;SDS011;46021;55.882;37.654;2022-08-21T12:09:10;23.67;;;12.23;;
50671;SDS011;46021;55.882;37.654;2022-08-21T12:11:59;24.45;;;11.55;;
50671;SDS011;46021;55.882;37.654;2022-08-21T12:14:36;24.25;;;11.52;;
50671;SDS011;46021;55.882;37.654;2022-08-21T12:17:06;26.45;;;12.75;;
50671;SDS011;46021;55.882;37.654;2022-08-21T12:19:33;27.42;;;13.30;;
50671;SDS011;46021;55.882;37.654;2022-08-21T12:22:07;23.17;;;13.25;;
50671;SDS011;46021;55.882;37.654;2022-08-21T12:24:37;29.20;;;14.35;;
50671;SDS011;46021;55.882;37.654;2022-08-21T12:27:13;23.75;;;12.93;;
50671;SDS011;46021;55.882;37.654;2022-08-21T12:29:55;20.33;;;12.23;;
50671;SDS011;46021;55.882;37.654;2022-08-21T12:32:25;21.98;;;12.25;;
50671;SDS011;46021;55.882;37.654;2022-08-21T12:34:55;20.75;;;10.85;;
50671;SDS011;46021;55.882;37.654;2022-08-21T12:37:31;16.90;;;9.82;;
50671;SDS011;46021;55.882;37.654;2022-08-21T12:40:09;19.17;;;9.18;;
50671;SDS011;46021;55.882;37.654;2022-08-21T12:42:41;14.30;;;8.65;;
50671;SDS011;46021;55.882;37.654;2022-08-21T12:45:16;14.50;;;7.85;;
50671;SDS011;46021;55.882;37.654;2022-08-21T12:47:48;14.07;;;7.82;;
50671;SDS011;46021;55.882;37.654;2022-08-21T12:50:20;13.35;;;7.78;;
50671;SDS011;46021;55.882;37.654;2022-08-21T12:52:53;10.18;;;7.15;;
50671;SDS011;46021;55.882;37.654;2022-08-21T12:55:27;18.23;;;7.55;;
50671;SDS011;46021;55.882;37.654;2022-08-21T12:57:55;15.70;;;7.90;;
50671;SDS011;46021;55.882;37.654;2022-08-21T13:00:23;14.65;;;7.50;;
50671;SDS011;46021;55.882;37.654;2022-08-21T13:02:54;13.15;;;7.40;;
50671;SDS011;46021;55.882;37.654;2022-08-21T13:05:25;13.35;;;7.20;;
50671;SDS011;46021;55.882;37.654;2022-08-21T13:07:55;14.73;;;8.73;;
50671;SDS011;46021;55.882;37.654;2022-08-21T13:10:23;21.75;;;9.52;;
50671;SDS011;46021;55.882;37.654;2022-08-21T13:12:53;20.60;;;8.55;;
50671;SDS011;46021;55.882;37.654;2022-08-21T13:15:23;23.40;;;8.90;;
50671;SDS011;46021;55.882;37.654;2022-08-21T13:17:52;25.27;;;9.15;;
50671;SDS011;46021;55.882;37.654;2022-08-21T13:20:20;25.55;;;9.98;;
50671;SDS011;46021;55.882;37.654;2022-08-21T13:22:48;25.70;;;10.90;;
50671;SDS011;46021;55.882;37.654;2022-08-21T13:25:18;21.10;;;10.40;;
50671;SDS011;46021;55.882;37.654;2022-08-21T13:27:57;20.52;;;9.27;;
50671;SDS011;46021;55.882;37.654;2022-08-21T13:30:25;15.07;;;9.80;;
50671;SDS011;46021;55.882;37.654;2022-08-21T13:32:54;19.30;;;10.10;;
50671;SDS011;46021;55.882;37.654;2022-08-21T13:35:24;22.30;;;11.15;;
50671;SDS011;46021;55.882;37.654;2022-08-21T13:37:53;22.73;;;13.05;;
50671;SDS011;46021;55.882;37.654;2022-08-21T13:40:23;26.35;;;13.55;;
50671;SDS011;46021;55.882;37.654;2022-08-21T13:42:52;24.45;;;14.48;;
50671;SDS011;46021;55.882;37.654;2022-08-21T13:45:23;28.23;;;15.30;;
50671;SDS011;46021;55.882;37.654;2022-08-21T13:47:52;28.27;;;14.98;;
50671;SDS011;46021;55.882;37.654;2022-08-21T13:50:20;31.75;;;15.73;;
50671;SDS011;46021;55.882;37.654;2022-08-21T13:52:54;24.40;;;15.48;;
50671;SDS011;46021;55.882;37.654;2022-08-21T13:55:23;25.83;;;16.15;;
50671;SDS011;46021;55.882;37.654;2022-08-21T13:57:58;34.90;;;17.88;;
50671;SDS011;46021;55.882;37.654;2022-08-21T14:00:27;24.90;;;16.55;;
50671;SDS011;46021;55.882;37.654;2022-08-21T14:02:59;27.60;;;16.38;;
50671;SDS011;46021;55.882;37.654;2022-08-21T14:05:32;24.13;;;15.60;;
50671;SDS011;46021;55.882;37.654;2022-08-21T14:08:03;35.88;;;20.75;;
50671;SDS011;46021;55.882;37.654;2022-08-21T14:10:35;27.27;;;17.80;;
50671;SDS011;46021;55.882;37.654;2022-08-21T14:13:06;26.95;;;16.55;;
50671;SDS011;46021;55.882;37.654;2022-08-21T14:15:47;23.40;;;15.82;;
50671;SDS011;46021;55.882;37.654;2022-08-21T14:18:23;25.88;;;16.85;;
50671;SDS011;46021;55.882;37.654;2022-08-21T14:20:51;25.75;;;16.33;;
50671;SDS011;46021;55.882;37.654;2022-08-21T14:23:28;33.25;;;17.95;;
50671;SDS011;46021;55.882;37.654;2022-08-21T14:25:57;36.67;;;17.05;;
50671;SDS011;46021;55.882;37.654;2022-08-21T14:28:26;31.75;;;19.38;;
50671;SDS011;46021;55.882;37.654;2022-08-21T14:30:55;28.38;;;18.38;;
50671;SDS011;46021;55.882;37.654;2022-08-21T14:33:25;31.63;;;19.25;;
50671;SDS011;46021;55.882;37.654;2022-08-21T14:35:54;31.27;;;20.58;;
50671;SDS011;46021;55.882;37.654;2022-08-21T14:38:22;29.08;;;19.17;;
50671;SDS011;46021;55.882;37.654;2022-08-21T14:40:51;35.72;;;20.08;;
50671;SDS011;46021;55.882;37.654;2022-08-21T14:43:20;30.30;;;20.50;;
50671;SDS011;46021;55.882;37.654;2022-08-21T14:45:47;28.55;;;19.63;;
50671;SDS011;46021;55.882;37.654;2022-08-21T14:48:15;30.08;;;21.00;;
50671;SDS011;46021;55.882;37.654;2022-08-21T14:50:44;42.10;;;23.05;;
50671;SDS011;46021;55.882;37.654;2022-08-21T14:53:11;38.53;;;23.90;;
50671;SDS011;46021;55.882;37.654;2022-08-21T14:55:38;32.58;;;22.05;;
50671;SDS011;46021;55.882;37.654;2022-08-21T14:58:23;33.35;;;22.75;;
50671;SDS011;46021;55.882;37.654;2022-08-21T15:00:51;41.30;;;22.77;;
50671;SDS011;46021;55.882;37.654;2022-08-21T15:03:19;35.20;;;23.02;;